createdAt,value
2023-02-20T00:00:18.434Z,101156.03
2023-02-20T00:03:08.829Z,101149.09
2023-02-20T00:05:39.460Z,101143.78
2023-02-20T00:08:09.595Z,101143.94
2023-02-20T00:10:40.146Z,101137.81
2023-02-20T00:13:10.473Z,101132.53
2023-02-20T00:15:41.601Z,101129.94
2023-02-20T00:18:11.632Z,101128.13
2023-02-20T00:20:41.353Z,101124.56
2023-02-20T00:23:11.433Z,101125.31
2023-02-20T00:25:41.270Z,101114.00
2023-02-20T00:28:11.314Z,101114.00
2023-02-20T00:30:43.375Z,101112.13
2023-02-20T00:33:16.884Z,101115.00
2023-02-20T00:35:46.693Z,101113.19
2023-02-20T00:38:16.961Z,101112.16
2023-02-20T00:40:48.722Z,101125.13
2023-02-20T00:43:20.075Z,101132.16
2023-02-20T00:45:52.273Z,101132.19
2023-02-20T00:48:22.296Z,101135.06
2023-02-20T00:51:11.853Z,101123.72
2023-02-20T00:53:42.200Z,101127.22
2023-02-20T00:56:11.970Z,101098.50
2023-02-20T00:58:43.180Z,101108.94
2023-02-20T01:01:16.841Z,101117.03
2023-02-20T01:03:47.218Z,101116.03
2023-02-20T01:06:17.946Z,101118.75
2023-02-20T01:08:51.421Z,101133.56
2023-02-20T01:11:25.814Z,101139.66
2023-02-20T01:13:55.958Z,101140.66
2023-02-20T01:16:27.372Z,101138.06
2023-02-20T01:18:58.886Z,101128.31
2023-02-20T01:21:28.624Z,101116.13
2023-02-20T01:23:59.827Z,101109.94
2023-02-20T01:26:29.517Z,101106.41
2023-02-20T01:28:59.816Z,101100.25
2023-02-20T01:31:31.232Z,101102.78
2023-02-20T01:34:02.528Z,101109.13
2023-02-20T01:36:32.346Z,101114.31
2023-02-20T01:39:02.412Z,101108.13
2023-02-20T01:41:32.589Z,101109.91
2023-02-20T01:44:05.140Z,101103.69
2023-02-20T01:46:58.966Z,101097.56
2023-02-20T01:49:33.074Z,101091.28
2023-02-20T01:52:06.953Z,101102.53
2023-02-20T01:54:38.897Z,101085.09
2023-02-20T01:57:11.186Z,101080.66
2023-02-20T01:59:43.224Z,101076.22
2023-02-20T02:02:15.688Z,101076.13
2023-02-20T02:04:49.069Z,101078.75
2023-02-20T02:07:18.943Z,101064.78
2023-02-20T02:09:51.993Z,101056.75
2023-02-20T02:12:23.040Z,101058.38
2023-02-20T02:14:54.406Z,101041.63
2023-02-20T02:17:41.237Z,101042.41
2023-02-20T02:20:36.918Z,101038.91
2023-02-20T02:23:27.546Z,101046.75
2023-02-20T02:25:59.003Z,101043.09
2023-02-20T02:28:40.003Z,101043.16
2023-02-20T02:31:25.320Z,101048.41
2023-02-20T02:34:10.813Z,101036.13
2023-02-20T02:36:51.130Z,101054.56
2023-02-20T02:39:26.917Z,101036.91
2023-02-20T02:42:00.393Z,101033.44
2023-02-20T02:44:33.997Z,101034.47
2023-02-20T02:47:07.035Z,101030.84
2023-02-20T02:49:39.892Z,101039.44
2023-02-20T02:52:13.327Z,101035.06
2023-02-20T02:54:45.380Z,101029.00
2023-02-20T02:57:21.333Z,101034.38
2023-02-20T02:59:58.083Z,101015.97
2023-02-20T03:02:31.963Z,101027.34
2023-02-20T03:05:03.501Z,101015.84
2023-02-20T03:07:36.908Z,101014.00
2023-02-20T03:10:08.815Z,101013.09
2023-02-20T03:12:42.836Z,101010.44
2023-02-20T03:15:33.153Z,101009.44
2023-02-20T03:18:11.949Z,101005.94
2023-02-20T03:20:44.408Z,101008.59
2023-02-20T03:23:17.526Z,100996.94
2023-02-20T03:25:51.910Z,100992.34
2023-02-20T03:28:24.866Z,100996.63
2023-02-20T03:30:57.541Z,100990.44
2023-02-20T03:33:50.299Z,100976.22
2023-02-20T03:36:42.283Z,100983.03
2023-02-20T03:39:33.282Z,100989.09
2023-02-20T03:42:23.288Z,100981.09
2023-02-20T03:45:01.373Z,100986.06
2023-02-20T03:47:35.515Z,100989.41
2023-02-20T03:50:08.265Z,100984.94
2023-02-20T03:52:38.404Z,100991.78
2023-02-20T03:55:10.665Z,100996.88
2023-02-20T03:57:43.459Z,100985.38
2023-02-20T04:00:17.500Z,100994.88
2023-02-20T04:02:55.103Z,100993.03
2023-02-20T04:05:30.097Z,100986.03
2023-02-20T04:08:03.681Z,100982.50
2023-02-20T04:10:39.296Z,100968.41
2023-02-20T04:13:09.635Z,100966.56
2023-02-20T04:15:41.198Z,100959.34
2023-02-20T04:18:12.543Z,100963.53
2023-02-20T04:20:45.104Z,100958.22
2023-02-20T04:23:25.958Z,100948.56
2023-02-20T04:25:59.061Z,100941.56
2023-02-20T04:28:29.956Z,100932.72
2023-02-20T04:31:04.547Z,100923.28
2023-02-20T04:33:36.740Z,100931.94
2023-02-20T04:36:13.047Z,100929.34
2023-02-20T04:38:44.055Z,100919.78
2023-02-20T04:41:18.789Z,100908.56
2023-02-20T04:43:49.677Z,100896.22
2023-02-20T04:46:20.817Z,100890.09
2023-02-20T04:48:50.567Z,100890.97
2023-02-20T04:51:20.688Z,100888.34
2023-02-20T04:53:51.212Z,100886.56
2023-02-20T04:56:22.838Z,100874.41
2023-02-20T04:58:52.818Z,100865.78
2023-02-20T05:01:26.007Z,100871.94
2023-02-20T05:03:56.685Z,100862.44
2023-02-20T05:06:26.822Z,100858.97
2023-02-20T05:08:57.100Z,100849.50
2023-02-20T05:11:29.129Z,100844.41
2023-02-20T05:13:58.896Z,100841.88
2023-02-20T05:16:28.958Z,100841.06
2023-02-20T05:19:00.926Z,100823.66
2023-02-20T05:21:48.232Z,100820.22
2023-02-20T05:24:17.883Z,100817.66
2023-02-20T05:26:49.918Z,100815.94
2023-02-20T05:29:19.753Z,100822.13
2023-02-20T05:31:49.682Z,100800.28
2023-02-20T05:34:21.669Z,100795.03
2023-02-20T05:36:51.777Z,100790.50
2023-02-20T05:39:21.928Z,100785.47
2023-02-20T05:41:53.487Z,100781.97
2023-02-20T05:44:23.167Z,100788.88
2023-02-20T05:46:54.425Z,100788.00
2023-02-20T05:49:24.709Z,100790.59
2023-02-20T05:51:57.395Z,100783.56
2023-02-20T05:54:27.165Z,100774.78
2023-02-20T05:57:01.138Z,100769.47
2023-02-20T05:59:34.110Z,100772.09
2023-02-20T06:02:05.166Z,100760.66
2023-02-20T06:04:36.606Z,100747.53
2023-02-20T06:07:10.526Z,100729.97
2023-02-20T06:09:43.194Z,100718.56
2023-02-20T06:12:15.203Z,100715.06
2023-02-20T06:14:45.033Z,100715.84
2023-02-20T06:17:15.304Z,100701.84
2023-02-20T06:19:45.082Z,100710.47
2023-02-20T06:22:15.264Z,100709.59
2023-02-20T06:24:47.554Z,100692.13
2023-02-20T06:27:19.483Z,100692.97
2023-02-20T06:29:49.314Z,100678.94
2023-02-20T06:32:19.468Z,100681.56
2023-02-20T06:34:49.286Z,100672.03
2023-02-20T06:37:19.318Z,100661.47
2023-02-20T06:39:50.341Z,100651.84
2023-02-20T06:42:22.153Z,100634.41
2023-02-20T06:44:54.547Z,100636.13
2023-02-20T06:47:24.950Z,100637.88
2023-02-20T06:49:54.715Z,100641.38
2023-02-20T06:52:25.016Z,100630.88
2023-02-20T06:54:54.645Z,100630.88
2023-02-20T06:57:26.462Z,100627.38
2023-02-20T06:59:56.485Z,100618.69
2023-02-20T07:02:26.812Z,100619.53
2023-02-20T07:04:56.567Z,100615.97
2023-02-20T07:07:26.626Z,100622.91
2023-02-20T07:09:56.576Z,100611.53
2023-02-20T07:12:30.256Z,100605.38
2023-02-20T07:15:00.136Z,100589.63
2023-02-20T07:17:30.188Z,100587.81
2023-02-20T07:20:00.295Z,100571.19
2023-02-20T07:22:31.029Z,100558.09
2023-02-20T07:25:00.778Z,100547.53
2023-02-20T07:27:32.296Z,100543.16
2023-02-20T07:30:02.390Z,100535.22
2023-02-20T07:32:32.814Z,100517.75
2023-02-20T07:35:06.828Z,100498.53
2023-02-20T07:37:38.424Z,100492.44
2023-02-20T07:40:08.879Z,100485.44
2023-02-20T07:42:40.520Z,100476.72
2023-02-20T07:45:19.735Z,100468.78
2023-02-20T07:47:49.753Z,100468.81
2023-02-20T07:50:19.551Z,100453.94
2023-02-20T07:52:49.619Z,100450.47
2023-02-20T07:55:19.878Z,100444.34
2023-02-20T07:57:52.267Z,100435.53
2023-02-20T08:00:22.387Z,100430.28
2023-02-20T08:02:52.827Z,100412.00
2023-02-20T08:05:23.034Z,100399.72
2023-02-20T08:07:54.146Z,100375.22
2023-02-20T08:10:25.565Z,100383.91
2023-02-20T08:12:57.700Z,100368.22
2023-02-20T08:15:27.541Z,100365.47
2023-02-20T08:17:58.287Z,100365.47
2023-02-20T08:20:28.399Z,100356.78
2023-02-20T08:23:01.054Z,100354.19
2023-02-20T08:25:31.379Z,100335.88
2023-02-20T08:28:03.039Z,100333.25
2023-02-20T08:30:32.942Z,100334.13
2023-02-20T08:33:06.615Z,100321.81
2023-02-20T08:35:37.056Z,100311.38
2023-02-20T08:38:09.411Z,100288.78
2023-02-20T08:40:39.026Z,100280.25
2023-02-20T08:43:10.798Z,100272.44
2023-02-20T08:45:40.887Z,100252.50
2023-02-20T08:48:11.225Z,100237.75
2023-02-20T08:50:41.266Z,100229.22
2023-02-20T08:53:11.333Z,100213.69
2023-02-20T08:55:41.135Z,100200.78
2023-02-20T08:58:13.881Z,100174.81
2023-02-20T09:00:44.902Z,100115.41
2023-02-20T09:03:15.228Z,100076.19
2023-02-20T09:05:45.480Z,100086.69
2023-02-20T09:08:15.636Z,100134.75
2023-02-20T09:10:45.770Z,100103.47
2023-02-20T09:13:18.593Z,100112.28
2023-02-20T09:15:49.027Z,100086.09
2023-02-20T09:18:19.654Z,100086.09
2023-02-20T09:20:49.744Z,100114.09
2023-02-20T09:23:21.903Z,100068.69
2023-02-20T09:25:51.736Z,100084.47
2023-02-20T09:28:23.669Z,100079.38
2023-02-20T09:30:55.937Z,100047.97
2023-02-20T09:33:26.409Z,100041.94
2023-02-20T09:35:56.532Z,100033.28
2023-02-20T09:38:28.148Z,100025.47
2023-02-20T09:40:58.697Z,100021.97
2023-02-20T09:43:38.715Z,99998.38
2023-02-20T09:46:12.019Z,99999.28
2023-02-20T09:48:49.100Z,99999.31
2023-02-20T09:51:21.840Z,100011.53
2023-02-20T09:53:54.911Z,99992.31
2023-02-20T09:56:26.912Z,99974.81
2023-02-20T09:59:01.139Z,99977.47
2023-02-20T10:01:31.548Z,99961.72
2023-02-20T10:04:04.647Z,99971.34
2023-02-20T10:06:35.612Z,99959.13
2023-02-20T10:09:06.774Z,99951.25
2023-02-20T10:11:54.517Z,99961.75
2023-02-20T10:17:28.931Z,99974.00
2023-02-20T10:20:04.201Z,99951.28
2023-02-20T10:22:35.501Z,99938.16
2023-02-20T10:25:11.096Z,99932.03
2023-02-20T10:27:45.512Z,99918.00
2023-02-20T10:30:19.628Z,99910.13
2023-02-20T10:32:52.834Z,99893.50
2023-02-20T10:35:25.537Z,99875.09
2023-02-20T10:37:57.345Z,99870.72
2023-02-20T10:40:30.883Z,99852.31
2023-02-20T10:43:03.521Z,99868.06
2023-02-20T10:45:39.481Z,99844.41
2023-02-20T10:48:15.739Z,99839.16
2023-02-20T10:50:48.858Z,99834.72
2023-02-20T10:53:22.945Z,99824.16
2023-02-20T10:55:55.597Z,99819.72
2023-02-20T10:58:28.263Z,99801.31
2023-02-20T11:01:00.468Z,99799.53
2023-02-20T11:03:37.677Z,99785.44
2023-02-20T11:06:09.009Z,99772.25
2023-02-20T11:08:39.128Z,99772.25
2023-02-20T11:11:19.302Z,99770.34
2023-02-20T11:13:49.112Z,99756.22
2023-02-20T11:16:23.131Z,99756.16
2023-02-20T11:19:03.293Z,99763.06
2023-02-20T11:21:38.477Z,99755.03
2023-02-20T11:24:21.756Z,99747.06
2023-02-20T11:26:53.090Z,99744.34
2023-02-20T11:29:24.541Z,99739.88
2023-02-20T11:31:54.713Z,99747.69
2023-02-20T11:34:27.273Z,99719.56
2023-02-20T11:37:06.174Z,99714.25
2023-02-20T11:39:36.091Z,99721.28
2023-02-20T11:42:07.815Z,99708.00
2023-02-20T11:44:37.599Z,99715.69
2023-02-20T11:47:28.883Z,99705.06
2023-02-20T11:50:19.004Z,99716.44
2023-02-20T11:53:02.560Z,99684.84
2023-02-20T11:55:32.575Z,99690.06
2023-02-20T11:58:04.326Z,99700.59
2023-02-20T12:00:45.883Z,99686.50
2023-02-20T12:03:19.820Z,99685.63
2023-02-20T12:05:50.697Z,99688.28
2023-02-20T12:08:25.709Z,99665.28
2023-02-20T12:11:00.240Z,99658.34
2023-02-20T12:13:31.302Z,99665.28
2023-02-20T12:16:06.289Z,99657.41
2023-02-20T12:18:44.026Z,99643.38
2023-02-20T12:21:25.445Z,99630.09
2023-02-20T12:24:02.151Z,99659.19
2023-02-20T12:26:38.491Z,99631.03
2023-02-20T12:29:15.859Z,99622.97
2023-02-20T12:32:10.951Z,99630.91
2023-02-20T12:34:47.728Z,99620.41
2023-02-20T12:37:22.509Z,99620.34
2023-02-20T12:39:59.911Z,99608.81
2023-02-20T12:42:33.784Z,99597.22
2023-02-20T12:45:19.031Z,99585.81
2023-02-20T12:47:54.267Z,99593.81
2023-02-20T12:50:36.057Z,99565.53
2023-02-20T12:53:14.350Z,99577.72
2023-02-20T12:55:52.888Z,99552.03
2023-02-20T12:58:35.157Z,99559.06
2023-02-20T13:01:09.022Z,99558.06
2023-02-20T13:03:44.648Z,99569.53
2023-02-20T13:06:18.898Z,99550.13
2023-02-20T13:08:54.975Z,99563.28
2023-02-20T13:11:28.000Z,99562.44
2023-02-20T13:14:03.639Z,99564.84
2023-02-20T13:16:36.510Z,99572.78
2023-02-20T13:19:08.109Z,99578.09
2023-02-20T13:21:38.792Z,99577.22
2023-02-20T13:24:28.113Z,99577.13
2023-02-20T13:27:06.972Z,99570.97
2023-02-20T13:29:38.226Z,99562.06
2023-02-20T13:32:24.366Z,99557.69
2023-02-20T13:34:56.844Z,99547.94
2023-02-20T13:37:45.659Z,99548.78
2023-02-20T13:40:30.089Z,99546.13
2023-02-20T13:43:18.927Z,99540.09
2023-02-20T13:45:51.149Z,99537.31
2023-02-20T13:48:22.554Z,99526.69
2023-02-20T13:50:52.334Z,99529.53
2023-02-20T13:53:22.606Z,99524.31
2023-02-20T13:55:52.236Z,99533.19
2023-02-20T13:58:23.293Z,99535.81
2023-02-20T14:00:55.341Z,99524.34
2023-02-20T14:03:26.754Z,99542.72
2023-02-20T14:06:07.584Z,99551.63
2023-02-20T14:08:38.490Z,99554.25
2023-02-20T14:11:09.411Z,99575.25
2023-02-20T14:13:41.178Z,99552.34
2023-02-20T14:16:35.470Z,99564.69
2023-02-20T14:19:09.668Z,99570.03
2023-02-20T14:21:40.008Z,99557.72
2023-02-20T14:24:18.848Z,99547.09
2023-02-20T14:26:49.224Z,99526.13
2023-02-20T14:29:23.203Z,99525.25
2023-02-20T14:31:54.195Z,99526.84
2023-02-20T14:34:30.975Z,99524.19
2023-02-20T14:37:05.682Z,99528.47
2023-02-20T14:39:41.193Z,99514.44
2023-02-20T14:42:15.616Z,99529.41
2023-02-20T14:44:49.563Z,99511.75
2023-02-20T14:47:19.510Z,99500.19
2023-02-20T14:49:51.379Z,99503.78
2023-02-20T14:52:23.177Z,99494.03
2023-02-20T14:55:01.011Z,99433.16
2023-02-20T14:57:32.882Z,99483.47
2023-02-20T15:00:10.724Z,99482.53
2023-02-20T15:02:43.262Z,99480.81
2023-02-20T15:05:18.623Z,99473.44
2023-02-20T15:07:51.421Z,99488.50
2023-02-20T15:10:35.071Z,99471.88
2023-02-20T15:13:07.723Z,99484.38
2023-02-20T15:15:39.023Z,99477.22
2023-02-20T15:18:09.782Z,99471.81
2023-02-20T15:20:43.126Z,99474.53
2023-02-20T15:23:23.294Z,99478.69
2023-02-20T15:25:53.555Z,99459.25
2023-02-20T15:28:27.764Z,99463.53
2023-02-20T15:31:05.504Z,99464.53
2023-02-20T15:33:36.104Z,99469.63
2023-02-20T15:36:13.676Z,99475.59
2023-02-20T15:38:43.746Z,99460.66
2023-02-20T15:41:14.352Z,99477.56
2023-02-20T15:43:48.945Z,99501.25
2023-02-20T15:46:21.413Z,99476.34
2023-02-20T15:48:51.593Z,99467.53
2023-02-20T15:51:24.089Z,99459.66
2023-02-20T15:53:55.046Z,99493.31
2023-02-20T15:56:25.387Z,99464.38
2023-02-20T15:58:55.014Z,99472.63
2023-02-20T16:01:25.070Z,99477.16
2023-02-20T16:03:55.042Z,99486.09
2023-02-20T16:06:26.772Z,99480.13
2023-02-20T16:08:56.671Z,99497.06
2023-02-20T16:11:27.860Z,99481.06
2023-02-20T16:13:59.903Z,99475.06
2023-02-20T16:16:33.235Z,99485.47
2023-02-20T16:19:03.362Z,99470.38
2023-02-20T16:21:35.123Z,99481.88
2023-02-20T16:24:05.032Z,99476.47
2023-02-20T16:26:36.452Z,99489.47
2023-02-20T16:29:08.166Z,99475.22
2023-02-20T16:31:56.849Z,99496.84
2023-02-20T16:34:27.371Z,99495.09
2023-02-20T16:36:59.146Z,99492.28
2023-02-20T16:39:28.802Z,99467.25
2023-02-20T16:42:00.230Z,99499.94
2023-02-20T16:44:36.355Z,99486.59
2023-02-20T16:47:08.102Z,99491.31
2023-02-20T16:49:40.545Z,99502.72
2023-02-20T16:52:18.088Z,99487.09
2023-02-20T16:54:49.742Z,99498.47
2023-02-20T16:57:21.931Z,99515.06
2023-02-20T16:59:55.074Z,99511.47
2023-02-20T17:02:26.855Z,99513.28
2023-02-20T17:04:57.122Z,99525.09
2023-02-20T17:07:30.614Z,99534.28
2023-02-20T17:10:00.404Z,99516.78
2023-02-20T17:12:31.399Z,99516.75
2023-02-20T17:15:01.392Z,99527.28
2023-02-20T17:17:33.488Z,99543.09
2023-02-20T17:20:03.470Z,99549.97
2023-02-20T17:22:35.050Z,99536.72
2023-02-20T17:25:04.860Z,99559.66
2023-02-20T17:27:34.964Z,99551.88
2023-02-20T17:30:05.156Z,99566.72
2023-02-20T17:32:35.786Z,99570.44
2023-02-20T17:35:06.075Z,99565.22
2023-02-20T17:37:37.647Z,99555.19
2023-02-20T17:40:10.078Z,99570.44
2023-02-20T17:42:40.119Z,99581.06
2023-02-20T17:45:10.443Z,99577.59
2023-02-20T17:47:40.533Z,99565.97
2023-02-20T17:50:10.485Z,99586.41
2023-02-20T17:52:45.492Z,99578.53
2023-02-20T17:55:20.860Z,99601.56
2023-02-20T17:57:51.482Z,99591.69
2023-02-20T18:00:22.339Z,99589.16
2023-02-20T18:02:52.386Z,99586.66
2023-02-20T18:05:22.060Z,99592.00
2023-02-20T18:07:53.476Z,99587.75
2023-02-20T18:10:23.511Z,99588.84
2023-02-20T18:13:04.097Z,99593.09
2023-02-20T18:15:34.744Z,99576.38
2023-02-20T18:18:07.853Z,99580.97
2023-02-20T18:20:41.372Z,99587.22
2023-02-20T18:23:12.737Z,99569.38
2023-02-20T18:25:42.613Z,99556.13
2023-02-20T18:28:13.037Z,99566.25
2023-02-20T18:30:42.921Z,99554.50
2023-02-20T18:33:13.329Z,99559.28
2023-02-20T18:35:42.966Z,99568.78
2023-02-20T18:38:14.748Z,99561.75
2023-02-20T18:40:47.577Z,99547.78
2023-02-20T18:43:17.634Z,99555.06
2023-02-20T18:45:47.466Z,99565.63
2023-02-20T18:48:18.336Z,99552.34
2023-02-20T18:50:47.998Z,99554.06
2023-02-20T18:53:21.646Z,99553.88
2023-02-20T18:55:51.230Z,99574.03
2023-02-20T18:58:21.253Z,99561.00
2023-02-20T19:00:51.033Z,99566.28
2023-02-20T19:03:21.547Z,99574.22
2023-02-20T19:05:52.349Z,99580.50
2023-02-20T19:08:24.386Z,99587.41
2023-02-20T19:10:54.134Z,99588.25
2023-02-20T19:13:24.228Z,99580.28
2023-02-20T19:15:53.884Z,99578.50
2023-02-20T19:18:23.994Z,99588.28
2023-02-20T19:20:53.715Z,99590.97
2023-02-20T19:23:25.208Z,99589.22
2023-02-20T19:25:59.663Z,99603.31
2023-02-20T19:28:31.259Z,99590.22
2023-02-20T19:31:01.356Z,99595.31
2023-02-20T19:33:32.998Z,99608.44
2023-02-20T19:36:03.258Z,99603.47
2023-02-20T19:38:35.728Z,99582.22
2023-02-20T19:41:05.717Z,99589.34
2023-02-20T19:43:36.638Z,99605.16
2023-02-20T19:46:06.521Z,99599.09
2023-02-20T19:48:36.422Z,99605.09
2023-02-20T19:51:09.342Z,99607.91
2023-02-20T19:53:41.129Z,99629.72
2023-02-20T19:56:11.296Z,99626.19
2023-02-20T19:58:42.032Z,99616.53
2023-02-20T20:01:16.681Z,99632.28
2023-02-20T20:03:49.942Z,99620.88
2023-02-20T20:06:20.115Z,99633.41
2023-02-20T20:09:10.426Z,99620.09
2023-02-20T20:11:41.528Z,99622.75
2023-02-20T20:14:12.679Z,99628.25
2023-02-20T20:16:44.087Z,99633.44
2023-02-20T20:19:14.580Z,99630.72
2023-02-20T20:21:44.339Z,99621.00
2023-02-20T20:24:16.108Z,99626.19
2023-02-20T20:26:45.815Z,99607.81
2023-02-20T20:29:16.100Z,99621.81
2023-02-20T20:31:46.084Z,99632.53
2023-02-20T20:34:16.149Z,99626.31
2023-02-20T20:36:45.702Z,99618.25
2023-02-20T20:39:17.769Z,99626.28
2023-02-20T20:41:47.548Z,99624.38
2023-02-20T20:44:19.572Z,99616.63
2023-02-20T20:46:49.158Z,99653.56
2023-02-20T20:49:19.108Z,99599.09
2023-02-20T20:51:48.898Z,99614.91
2023-02-20T20:54:20.638Z,99619.47
2023-02-20T20:56:51.053Z,99620.19
2023-02-20T20:59:21.182Z,99629.75
2023-02-20T21:01:50.965Z,99599.88
2023-02-20T21:04:21.057Z,99634.44
2023-02-20T21:06:51.242Z,99631.59
2023-02-20T21:09:25.986Z,99629.06
2023-02-20T21:11:55.837Z,99634.25
2023-02-20T21:14:27.598Z,99625.41
2023-02-20T21:16:58.227Z,99604.38
2023-02-20T21:19:28.624Z,99620.22
2023-02-20T21:21:58.362Z,99627.28
2023-02-20T21:24:29.729Z,99631.69
2023-02-20T21:26:59.367Z,99618.56
2023-02-20T21:29:29.298Z,99633.44
2023-02-20T21:31:59.255Z,99621.19
2023-02-20T21:34:31.572Z,99626.63
2023-02-20T21:37:03.099Z,99626.63
2023-02-20T21:39:34.630Z,99630.81
2023-02-20T21:42:21.408Z,99649.28
2023-02-20T21:44:51.998Z,99635.13
2023-02-20T21:47:21.690Z,99643.06
2023-02-20T21:49:51.749Z,99630.78
2023-02-20T21:52:21.860Z,99640.59
2023-02-20T21:54:54.329Z,99632.03
2023-02-20T21:57:26.940Z,99631.00
2023-02-20T21:59:55.738Z,99626.72
2023-02-20T22:02:23.892Z,99620.63
2023-02-20T22:04:52.669Z,99639.13
2023-02-20T22:07:39.659Z,99642.47
2023-02-20T22:10:29.902Z,99630.06
2023-02-20T22:13:18.195Z,99633.53
2023-02-20T22:16:05.938Z,99636.19
2023-02-20T22:18:53.341Z,99637.94
2023-02-20T22:21:41.498Z,99625.75
2023-02-20T22:24:37.797Z,99612.41
2023-02-20T22:27:28.636Z,99635.19
2023-02-20T22:30:15.759Z,99640.47
2023-02-20T22:33:03.125Z,99633.56
2023-02-20T22:35:51.856Z,99639.72
2023-02-20T22:38:39.933Z,99632.56
2023-02-20T22:41:26.930Z,99631.00
2023-02-20T22:44:15.612Z,99626.66
2023-02-20T22:47:04.853Z,99623.03
2023-02-20T22:49:52.495Z,99629.28
2023-02-20T22:52:39.810Z,99629.28
2023-02-20T22:55:26.998Z,99631.13
2023-02-20T22:58:13.961Z,99641.72
2023-02-20T23:01:02.832Z,99634.75
2023-02-20T23:03:50.818Z,99620.78
2023-02-20T23:06:38.404Z,99618.09
2023-02-20T23:09:26.392Z,99624.16
2023-02-20T23:12:15.150Z,99629.50
2023-02-20T23:15:02.240Z,99624.13
2023-02-20T23:17:50.662Z,99617.16
2023-02-20T23:20:39.145Z,99621.56
2023-02-20T23:23:27.814Z,99627.69
2023-02-20T23:26:14.561Z,99617.13
2023-02-20T23:29:02.092Z,99623.22
2023-02-20T23:31:49.749Z,99623.28
2023-02-20T23:34:39.003Z,99622.28
2023-02-20T23:37:26.269Z,99602.94
2023-02-20T23:40:14.816Z,99620.47
2023-02-20T23:43:01.664Z,99627.53
2023-02-20T23:45:48.902Z,99617.97
2023-02-20T23:48:36.280Z,99600.22
2023-02-20T23:51:27.778Z,99623.13
2023-02-20T23:54:14.515Z,99620.44
2023-02-20T23:57:02.548Z,99611.66
2023-02-20T23:59:49.509Z,99632.84
